createdAt,value
2017-04-25T00:00:07.017Z,1021.66
2017-04-25T00:01:07.009Z,1021.65
2017-04-25T00:02:07.001Z,1021.67
2017-04-25T00:03:06.992Z,1021.64
2017-04-25T00:04:06.983Z,1021.61
2017-04-25T00:05:06.975Z,1021.62
2017-04-25T00:06:06.967Z,1021.57
2017-04-25T00:07:06.958Z,1021.58
2017-04-25T00:08:06.952Z,1021.57
2017-04-25T00:09:06.941Z,1021.55
2017-04-25T00:10:06.932Z,1021.55
2017-04-25T00:11:06.926Z,1021.5
2017-04-25T00:12:06.916Z,1021.52
2017-04-25T00:13:06.908Z,1021.47
2017-04-25T00:14:06.899Z,1021.46
2017-04-25T00:15:06.891Z,1021.45
2017-04-25T00:16:06.880Z,1021.41
2017-04-25T00:17:06.873Z,1021.36
2017-04-25T00:18:06.865Z,1021.38
2017-04-25T00:19:06.855Z,1021.31
2017-04-25T00:20:06.847Z,1021.36
2017-04-25T00:21:06.839Z,1021.34
2017-04-25T00:22:06.831Z,1021.32
2017-04-25T00:23:06.821Z,1021.32
2017-04-25T00:24:06.813Z,1021.33
2017-04-25T00:25:06.805Z,1021.29
2017-04-25T00:26:06.795Z,1021.27
2017-04-25T00:27:07.037Z,1021.26
2017-04-25T00:28:06.778Z,1021.24
2017-04-25T00:29:06.769Z,1021.18
2017-04-25T00:30:06.760Z,1021.18
2017-04-25T00:31:06.752Z,1021.18
2017-04-25T00:32:07.043Z,1021.18
2017-04-25T00:33:06.735Z,1021.15
2017-04-25T00:34:06.725Z,1021.11
2017-04-25T00:35:06.717Z,1021.11
2017-04-25T00:36:06.708Z,1021.07
2017-04-25T00:37:07.000Z,1021.08
2017-04-25T00:38:06.691Z,1020.99
2017-04-25T00:39:06.682Z,1020.96
2017-04-25T00:40:06.673Z,1020.93
2017-04-25T00:41:06.665Z,1020.92
2017-04-25T00:42:06.906Z,1020.9
2017-04-25T00:43:06.646Z,1020.87
2017-04-25T00:44:06.638Z,1020.84
2017-04-25T00:45:06.630Z,1020.83
2017-04-25T00:46:06.620Z,1020.81
2017-04-25T00:47:06.913Z,1020.77
2017-04-25T00:48:06.602Z,1020.72
2017-04-25T00:49:06.594Z,1020.71
2017-04-25T00:50:06.586Z,1020.7
2017-04-25T00:51:06.577Z,1020.65
2017-04-25T00:52:06.818Z,1020.63
2017-04-25T00:53:06.559Z,1020.59
2017-04-25T00:54:06.550Z,1020.56
2017-04-25T00:55:06.541Z,1020.52
2017-04-25T00:56:06.532Z,1020.53
2017-04-25T00:57:06.773Z,1020.5
2017-04-25T00:58:06.517Z,1020.47
2017-04-25T00:59:06.506Z,1020.45
2017-04-25T01:00:06.496Z,1020.45
2017-04-25T01:01:06.488Z,1020.43
2017-04-25T01:02:06.779Z,1020.42
2017-04-25T01:03:06.469Z,1020.43
2017-04-25T01:04:06.461Z,1020.42
2017-04-25T01:05:06.453Z,1020.4
2017-04-25T01:06:06.444Z,1020.4
2017-04-25T01:07:06.685Z,1020.42
2017-04-25T01:08:06.426Z,1020.37
2017-04-25T01:09:06.418Z,1020.36
2017-04-25T01:10:06.411Z,1020.3
2017-04-25T01:11:06.400Z,1020.29
2017-04-25T01:12:06.641Z,1020.2
2017-04-25T01:13:06.383Z,1020.2
2017-04-25T01:14:06.373Z,1020.18
2017-04-25T01:15:06.365Z,1020.21
2017-04-25T01:16:06.356Z,1020.13
2017-04-25T01:17:06.598Z,1020.05
2017-04-25T01:18:06.339Z,1020.06
2017-04-25T01:19:06.330Z,1020.07
2017-04-25T01:20:06.320Z,1020.07
2017-04-25T01:21:06.311Z,1020.01
2017-04-25T01:22:06.603Z,1019.97
2017-04-25T01:23:06.294Z,1019.93
2017-04-25T01:24:06.286Z,1019.88
2017-04-25T01:25:06.277Z,1019.91
2017-04-25T01:26:06.268Z,1019.88
2017-04-25T01:27:06.559Z,1019.89
2017-04-25T01:28:06.251Z,1019.85
2017-04-25T01:29:06.242Z,1019.82
2017-04-25T01:30:06.233Z,1019.8
2017-04-25T01:31:06.225Z,1019.78
2017-04-25T01:32:06.465Z,1019.76
2017-04-25T01:33:06.206Z,1019.74
2017-04-25T01:34:06.198Z,1019.7
2017-04-25T01:35:06.189Z,1019.65
2017-04-25T01:36:06.180Z,1019.63
2017-04-25T01:37:06.471Z,1019.64
2017-04-25T01:38:06.162Z,1019.6
2017-04-25T01:39:06.154Z,1019.63
2017-04-25T01:40:06.145Z,1019.6
2017-04-25T01:41:06.136Z,1019.63
2017-04-25T01:42:06.428Z,1019.63
2017-04-25T01:43:06.118Z,1019.59
2017-04-25T01:44:06.109Z,1019.57
2017-04-25T01:45:06.105Z,1019.59
2017-04-25T01:46:06.093Z,1019.58
2017-04-25T01:47:06.083Z,1019.52
2017-04-25T01:48:06.074Z,1019.5
2017-04-25T01:49:06.066Z,1019.42
2017-04-25T01:50:06.057Z,1019.4
2017-04-25T01:51:06.048Z,1019.4
2017-04-25T01:52:06.039Z,1019.33
2017-04-25T01:53:06.031Z,1019.28
2017-04-25T01:54:06.022Z,1019.27
2017-04-25T01:55:06.015Z,1019.22
2017-04-25T01:56:06.005Z,1019.2
2017-04-25T01:57:05.997Z,1019.19
2017-04-25T01:58:05.986Z,1019.17
2017-04-25T01:59:05.979Z,1019.16
2017-04-25T02:00:05.970Z,1019.19
2017-04-25T02:01:05.962Z,1019.19
2017-04-25T02:02:05.953Z,1019.2
2017-04-25T02:03:05.943Z,1019.24
2017-04-25T02:04:05.936Z,1019.3
2017-04-25T02:05:05.926Z,1019.3
2017-04-25T02:06:05.918Z,1019.28
2017-04-25T02:07:05.910Z,1019.3
2017-04-25T02:08:05.901Z,1019.32
2017-04-25T02:09:05.891Z,1019.26
2017-04-25T02:10:05.882Z,1019.31
2017-04-25T02:11:05.874Z,1019.26
2017-04-25T02:12:05.865Z,1019.26
2017-04-25T02:13:05.857Z,1019.26
2017-04-25T02:14:05.849Z,1019.27
2017-04-25T02:15:05.840Z,1019.24
2017-04-25T02:16:05.830Z,1019.25
2017-04-25T02:17:05.822Z,1019.27
2017-04-25T02:18:05.814Z,1019.22
2017-04-25T02:19:05.805Z,1019.18
2017-04-25T02:20:05.795Z,1019.16
2017-04-25T02:21:05.787Z,1019.15
2017-04-25T02:22:05.778Z,1019.1
2017-04-25T02:23:05.770Z,1019.06
2017-04-25T02:24:05.761Z,1019.05
2017-04-25T02:25:05.752Z,1019.03
2017-04-25T02:26:05.743Z,1019.01
2017-04-25T02:27:05.733Z,1019.03
2017-04-25T02:28:05.724Z,1019.07
2017-04-25T02:29:05.717Z,1019.02
2017-04-25T02:30:05.707Z,1019.03
2017-04-25T02:31:05.699Z,1019.03
2017-04-25T02:32:05.689Z,1019.03
2017-04-25T02:33:05.681Z,1019
2017-04-25T02:34:05.671Z,1019.03
2017-04-25T02:35:05.663Z,1018.98
2017-04-25T02:36:05.654Z,1018.97
2017-04-25T02:37:05.646Z,1018.99
2017-04-25T02:38:05.638Z,1018.95
2017-04-25T02:39:05.627Z,1018.94
2017-04-25T02:40:05.618Z,1018.9
2017-04-25T02:41:05.610Z,1018.9
2017-04-25T02:42:05.600Z,1018.89
2017-04-25T02:43:05.592Z,1018.82
2017-04-25T02:44:05.583Z,1018.79
2017-04-25T02:45:05.573Z,1018.75
2017-04-25T02:46:05.564Z,1018.71
2017-04-25T02:47:05.556Z,1018.69
2017-04-25T02:48:05.548Z,1018.69
2017-04-25T02:49:05.538Z,1018.65
2017-04-25T02:50:05.529Z,1018.62
2017-04-25T02:51:05.520Z,1018.61
2017-04-25T02:52:05.512Z,1018.6
2017-04-25T02:53:05.502Z,1018.56
2017-04-25T02:54:05.493Z,1018.56
2017-04-25T02:55:05.485Z,1018.55
2017-04-25T02:56:05.475Z,1018.52
2017-04-25T02:57:05.467Z,1018.53
2017-04-25T02:58:05.458Z,1018.52
2017-04-25T02:59:05.449Z,1018.53
2017-04-25T03:00:05.439Z,1018.45
2017-04-25T03:01:05.432Z,1018.41
2017-04-25T03:02:05.426Z,1018.41
2017-04-25T03:03:05.414Z,1018.41
2017-04-25T03:04:05.405Z,1018.41
2017-04-25T03:05:05.396Z,1018.4
2017-04-25T03:06:05.387Z,1018.37
2017-04-25T03:07:05.378Z,1018.42
2017-04-25T03:08:05.369Z,1018.39
2017-04-25T03:09:05.361Z,1018.4
2017-04-25T03:10:05.351Z,1018.38
2017-04-25T03:11:05.342Z,1018.39
2017-04-25T03:12:05.335Z,1018.41
2017-04-25T03:13:05.326Z,1018.41
2017-04-25T03:14:05.317Z,1018.41
2017-04-25T03:15:05.307Z,1018.38
2017-04-25T03:16:05.298Z,1018.38
2017-04-25T03:17:05.290Z,1018.4
2017-04-25T03:18:05.286Z,1018.41
2017-04-25T03:19:05.272Z,1018.4
2017-04-25T03:20:05.263Z,1018.41
2017-04-25T03:21:05.255Z,1018.38
2017-04-25T03:22:05.245Z,1018.4
2017-04-25T03:23:05.237Z,1018.37
2017-04-25T03:24:05.228Z,1018.36
2017-04-25T03:25:05.219Z,1018.35
2017-04-25T03:26:05.210Z,1018.38
2017-04-25T03:27:05.201Z,1018.34
2017-04-25T03:28:05.192Z,1018.36
2017-04-25T03:29:05.182Z,1018.3
2017-04-25T03:30:05.174Z,1018.29
2017-04-25T03:31:05.184Z,1018.24
2017-04-25T03:32:05.157Z,1018.24
2017-04-25T03:33:05.147Z,1018.2
2017-04-25T03:34:05.138Z,1018.18
2017-04-25T03:35:05.130Z,1018.21
2017-04-25T03:36:05.121Z,1018.16
2017-04-25T03:37:05.112Z,1018.16
2017-04-25T03:38:05.102Z,1018.13
2017-04-25T03:39:05.095Z,1018.14
2017-04-25T03:40:05.087Z,1018.16
2017-04-25T03:41:05.076Z,1018.16
2017-04-25T03:42:05.067Z,1018.13
2017-04-25T03:43:05.059Z,1018.12
2017-04-25T03:44:05.048Z,1018.14
2017-04-25T03:45:05.040Z,1018.15
2017-04-25T03:46:05.031Z,1018.13
2017-04-25T03:47:05.022Z,1018.12
2017-04-25T03:48:05.013Z,1018.14
2017-04-25T03:49:05.005Z,1018.19
2017-04-25T03:50:04.996Z,1018.24
2017-04-25T03:51:04.986Z,1018.24
2017-04-25T03:52:04.978Z,1018.26
2017-04-25T03:53:04.968Z,1018.27
2017-04-25T03:54:04.960Z,1018.32
2017-04-25T03:55:04.950Z,1018.37
2017-04-25T03:56:04.941Z,1018.35
2017-04-25T03:57:04.932Z,1018.37
2017-04-25T03:58:04.922Z,1018.43
2017-04-25T03:59:04.914Z,1018.47
2017-04-25T04:00:04.905Z,1018.49
2017-04-25T04:01:04.896Z,1018.5
2017-04-25T04:02:04.886Z,1018.5
2017-04-25T04:03:04.877Z,1018.52
2017-04-25T04:04:04.869Z,1018.5
2017-04-25T04:05:04.859Z,1018.46
2017-04-25T04:06:04.849Z,1018.42
2017-04-25T04:07:04.840Z,1018.43
2017-04-25T04:08:05.082Z,1018.41
2017-04-25T04:09:04.822Z,1018.4
2017-04-25T04:10:04.816Z,1018.38
2017-04-25T04:11:04.804Z,1018.38
2017-04-25T04:12:04.795Z,1018.37
2017-04-25T04:13:05.135Z,1018.35
2017-04-25T04:14:04.775Z,1018.35
2017-04-25T04:15:04.767Z,1018.32
2017-04-25T04:16:04.758Z,1018.34
2017-04-25T04:17:04.749Z,1018.32
2017-04-25T04:18:04.740Z,1018.33
2017-04-25T04:19:04.730Z,1018.31
2017-04-25T04:20:04.721Z,1018.23
2017-04-25T04:21:04.711Z,1018.2
2017-04-25T04:22:04.703Z,1018.17
2017-04-25T04:23:04.694Z,1018.1
2017-04-25T04:24:04.683Z,1018.06
2017-04-25T04:25:04.677Z,1018.03
2017-04-25T04:26:04.666Z,1018
2017-04-25T04:27:04.658Z,1017.99
2017-04-25T04:28:04.648Z,1017.91
2017-04-25T04:29:04.638Z,1017.84
2017-04-25T04:30:04.629Z,1017.76
2017-04-25T04:31:04.620Z,1017.72
2017-04-25T04:32:04.611Z,1017.64
2017-04-25T04:33:04.602Z,1017.64
2017-04-25T04:34:04.593Z,1017.61
2017-04-25T04:35:04.583Z,1017.54
2017-04-25T04:36:04.575Z,1017.48
2017-04-25T04:37:04.566Z,1017.46
2017-04-25T04:38:04.557Z,1017.43
2017-04-25T04:39:04.549Z,1017.33
2017-04-25T04:40:04.541Z,1017.21
2017-04-25T04:41:04.531Z,1017.1
2017-04-25T04:42:04.522Z,1016.99
2017-04-25T04:43:04.513Z,1016.86
2017-04-25T04:44:04.505Z,1016.79
2017-04-25T04:45:04.497Z,1016.69
2017-04-25T04:46:04.488Z,1016.59
2017-04-25T04:47:04.480Z,1016.43
2017-04-25T04:48:04.482Z,1016.2
2017-04-25T04:49:04.464Z,1015.96
2017-04-25T04:50:04.455Z,1015.72
2017-04-25T04:51:04.447Z,1015.43
2017-04-25T04:52:04.440Z,1015.29
2017-04-25T04:53:04.432Z,1015.14
2017-04-25T04:54:04.425Z,1014.96
2017-04-25T04:55:04.418Z,1014.84
2017-04-25T04:56:04.411Z,1014.76
2017-04-25T04:57:04.403Z,1014.61
2017-04-25T04:58:04.397Z,1014.5
2017-04-25T04:59:04.391Z,1014.47
2017-04-25T05:00:04.384Z,1014.39
2017-04-25T05:01:04.377Z,1014.39
2017-04-25T05:02:04.371Z,1014.4
2017-04-25T05:03:04.365Z,1014.4
2017-04-25T05:04:04.358Z,1014.46
2017-04-25T05:05:04.353Z,1014.47
2017-04-25T05:06:04.348Z,1014.54
2017-04-25T05:07:04.343Z,1014.55
2017-04-25T05:08:04.338Z,1014.63
2017-04-25T05:09:04.330Z,1014.7
2017-04-25T05:10:04.325Z,1014.77
2017-04-25T05:11:04.320Z,1014.85
2017-04-25T05:12:04.314Z,1014.92
2017-04-25T05:13:04.309Z,1014.95
2017-04-25T05:14:04.304Z,1015.02
2017-04-25T05:15:04.298Z,1015.03
2017-04-25T05:16:04.293Z,1015.07
2017-04-25T05:17:04.288Z,1015.11
2017-04-25T05:18:04.283Z,1015.19
2017-04-25T05:19:04.277Z,1015.16
2017-04-25T05:20:04.274Z,1015.17
2017-04-25T05:21:04.267Z,1015.21
2017-04-25T05:22:04.261Z,1015.21
2017-04-25T05:23:04.262Z,1015.21
2017-04-25T05:24:04.252Z,1015.21
2017-04-25T05:25:04.246Z,1015.2
2017-04-25T05:26:04.241Z,1015.22
2017-04-25T05:27:04.235Z,1015.22
2017-04-25T05:28:04.230Z,1015.21
2017-04-25T05:29:04.224Z,1015.23
2017-04-25T05:30:04.218Z,1015.25
2017-04-25T05:31:04.213Z,1015.32
2017-04-25T05:32:04.207Z,1015.31
2017-04-25T05:33:04.201Z,1015.31
2017-04-25T05:34:04.196Z,1015.32
2017-04-25T05:35:04.191Z,1015.28
2017-04-25T05:36:04.185Z,1015.26
2017-04-25T05:37:04.178Z,1015.33
2017-04-25T05:38:04.173Z,1015.39
2017-04-25T05:39:04.168Z,1015.46
2017-04-25T05:40:04.163Z,1015.47
2017-04-25T05:41:04.156Z,1015.44
2017-04-25T05:42:04.151Z,1015.47
2017-04-25T05:43:04.146Z,1015.46
2017-04-25T05:44:04.139Z,1015.44
2017-04-25T05:45:04.133Z,1015.46
2017-04-25T05:46:04.128Z,1015.52
2017-04-25T05:47:04.121Z,1015.57
2017-04-25T05:48:04.116Z,1015.64
2017-04-25T05:49:04.110Z,1015.69
2017-04-25T05:50:04.104Z,1015.71
2017-04-25T05:51:04.099Z,1015.76
2017-04-25T05:52:04.092Z,1015.79
2017-04-25T05:53:04.086Z,1015.84
2017-04-25T05:54:04.081Z,1015.87
2017-04-25T05:55:04.072Z,1015.92
2017-04-25T05:56:04.068Z,1015.91
2017-04-25T05:57:04.062Z,1015.91
2017-04-25T05:58:04.057Z,1015.88
2017-04-25T05:59:04.049Z,1015.82
2017-04-25T06:00:04.044Z,1015.83
2017-04-25T06:01:04.037Z,1015.82
2017-04-25T06:02:04.033Z,1015.78
2017-04-25T06:03:04.025Z,1015.71
2017-04-25T06:04:04.269Z,1015.67
2017-04-25T06:05:04.012Z,1015.65
2017-04-25T06:06:04.006Z,1015.54
2017-04-25T06:07:04.000Z,1015.5
2017-04-25T06:08:03.995Z,1015.49
2017-04-25T06:09:03.988Z,1015.49
2017-04-25T06:10:03.982Z,1015.45
2017-04-25T06:11:03.976Z,1015.41
2017-04-25T06:12:03.969Z,1015.42
2017-04-25T06:13:03.965Z,1015.48
2017-04-25T06:14:03.958Z,1015.45
2017-04-25T06:15:03.951Z,1015.37
2017-04-25T06:16:03.946Z,1015.35
2017-04-25T06:17:03.942Z,1015.23
2017-04-25T06:18:03.938Z,1015.14
2017-04-25T06:19:03.928Z,1015.06
2017-04-25T06:20:03.923Z,1015.01
2017-04-25T06:21:03.917Z,1014.9
2017-04-25T06:22:03.910Z,1014.83
2017-04-25T06:23:03.906Z,1014.78
2017-04-25T06:24:03.899Z,1014.69
2017-04-25T06:25:03.893Z,1014.56
2017-04-25T06:26:03.888Z,1014.44
2017-04-25T06:27:03.882Z,1014.32
2017-04-25T06:28:03.877Z,1014.13
2017-04-25T06:29:03.872Z,1014.13
2017-04-25T06:30:03.867Z,1014.09
2017-04-25T06:31:03.863Z,1014.01
2017-04-25T06:32:03.855Z,1013.92
2017-04-25T06:33:03.852Z,1013.88
2017-04-25T06:34:03.847Z,1013.76
2017-04-25T06:35:03.843Z,1013.74
2017-04-25T06:36:03.838Z,1013.72
2017-04-25T06:37:03.836Z,1013.75
2017-04-25T06:38:03.829Z,1013.82
2017-04-25T06:39:03.824Z,1013.84
2017-04-25T06:40:03.819Z,1014.03
2017-04-25T06:41:03.816Z,1013.69
2017-04-25T06:42:03.812Z,1013.13
2017-04-25T06:43:03.807Z,1012.66
2017-04-25T06:44:03.803Z,1012.26
2017-04-25T06:45:03.801Z,1011.81
2017-04-25T06:46:03.797Z,1011.54
2017-04-25T06:47:03.793Z,1011.27
2017-04-25T06:48:03.789Z,1011.12
2017-04-25T06:49:03.787Z,1010.8
2017-04-25T06:50:03.784Z,1010.41
2017-04-25T06:51:03.782Z,1010.34
2017-04-25T06:52:03.781Z,1009.95
2017-04-25T06:53:03.780Z,1009.77
2017-04-25T06:54:03.778Z,1010.01
2017-04-25T06:55:03.777Z,1010.33
2017-04-25T06:56:03.776Z,1009.96
2017-04-25T06:57:03.776Z,1009.85
2017-04-25T06:58:03.777Z,1009.67
2017-04-25T06:59:03.776Z,1009.66
2017-04-25T07:00:03.778Z,1009.58
2017-04-25T07:01:03.778Z,1009.25
2017-04-25T07:02:03.780Z,1009.05
2017-04-25T07:03:03.784Z,1008.77
2017-04-25T07:04:03.785Z,1008.47
2017-04-25T07:05:03.786Z,1008.58
2017-04-25T07:06:03.789Z,1008.95
2017-04-25T07:07:03.792Z,1009.21
2017-04-25T07:08:03.795Z,1009.36
2017-04-25T07:09:03.799Z,1009.65
2017-04-25T07:10:03.803Z,1009.93
2017-04-25T07:11:03.807Z,1010.25
2017-04-25T07:12:03.810Z,1010.61
2017-04-25T07:13:03.815Z,1010.93
2017-04-25T07:14:03.818Z,1011.14
2017-04-25T07:15:03.822Z,1011.16
2017-04-25T07:16:03.825Z,1011.17
2017-04-25T07:17:03.830Z,1011.24
2017-04-25T07:18:03.832Z,1011.28
2017-04-25T07:19:03.836Z,1011.34
2017-04-25T07:20:03.839Z,1011.5
2017-04-25T07:21:03.843Z,1011.65
2017-04-25T07:22:03.846Z,1011.7
2017-04-25T07:23:03.849Z,1011.62
2017-04-25T07:24:03.860Z,1011.58
2017-04-25T07:25:03.856Z,1011.58
2017-04-25T07:26:03.859Z,1011.44
2017-04-25T07:27:03.860Z,1011.35
2017-04-25T07:28:03.864Z,1011.05
2017-04-25T07:29:03.867Z,1010.85
2017-04-25T07:30:03.869Z,1010.89
2017-04-25T07:31:03.872Z,1010.97
2017-04-25T07:32:03.876Z,1010.95
2017-04-25T07:33:03.879Z,1010.91
2017-04-25T07:34:03.881Z,1011.08
2017-04-25T07:35:03.884Z,1011.2
2017-04-25T07:36:03.912Z,1011.53
2017-04-25T07:37:03.890Z,1011.8
2017-04-25T07:38:03.892Z,1012.04
2017-04-25T07:39:03.893Z,1012.31
2017-04-25T07:40:03.905Z,1012.37
2017-04-25T07:41:03.899Z,1012.62
2017-04-25T07:42:03.900Z,1012.94
2017-04-25T07:43:03.903Z,1013.17
2017-04-25T07:44:03.905Z,1013.36
2017-04-25T07:45:03.905Z,1013.64
2017-04-25T07:46:03.907Z,1013.93
2017-04-25T07:47:03.908Z,1014.35
2017-04-25T07:48:03.909Z,1014.62
2017-04-25T07:49:03.908Z,1014.83
2017-04-25T07:50:03.916Z,1015.2
2017-04-25T07:51:03.908Z,1015.3
2017-04-25T07:52:03.910Z,1015.47
2017-04-25T07:53:03.907Z,1015.65
2017-04-25T07:54:03.906Z,1015.82
2017-04-25T07:55:03.906Z,1015.97
2017-04-25T07:56:03.902Z,1016.15
2017-04-25T07:57:03.902Z,1016.18
2017-04-25T07:58:03.900Z,1016.19
2017-04-25T07:59:03.913Z,1016.27
2017-04-25T08:00:03.894Z,1016.34
2017-04-25T08:01:05.309Z,1016.32
2017-04-25T08:02:03.891Z,1016.33
2017-04-25T08:03:03.886Z,1016.33
2017-04-25T08:04:03.884Z,1016.38
2017-04-25T08:05:03.881Z,1016.4
2017-04-25T08:06:03.879Z,1016.55
2017-04-25T08:07:03.879Z,1016.57
2017-04-25T08:08:03.872Z,1016.73
2017-04-25T08:09:03.868Z,1016.76
2017-04-25T08:10:03.865Z,1016.97
2017-04-25T08:11:03.861Z,1017.08
2017-04-25T08:12:03.857Z,1017.11
2017-04-25T08:13:03.854Z,1017.29
2017-04-25T08:14:03.849Z,1017.39
2017-04-25T08:15:03.845Z,1017.54
2017-04-25T08:16:03.841Z,1017.6
2017-04-25T08:17:03.837Z,1017.79
2017-04-25T08:18:03.833Z,1017.84
2017-04-25T08:19:03.828Z,1017.81
2017-04-25T08:20:03.823Z,1017.96
2017-04-25T08:21:03.818Z,1017.99
2017-04-25T08:22:03.813Z,1018.06
2017-04-25T08:23:03.810Z,1018.09
2017-04-25T08:24:03.805Z,1018.14
2017-04-25T08:25:03.799Z,1018.2
2017-04-25T08:26:03.794Z,1018.17
2017-04-25T08:27:03.789Z,1018.27
2017-04-25T08:28:03.784Z,1018.26
2017-04-25T08:29:03.779Z,1018.22
2017-04-25T08:30:03.773Z,1018.21
2017-04-25T08:31:03.768Z,1018.11
2017-04-25T08:32:03.763Z,1018.09
2017-04-25T08:33:03.758Z,1017.97
2017-04-25T08:34:03.753Z,1017.96
2017-04-25T08:35:03.747Z,1017.89
2017-04-25T08:36:03.740Z,1017.83
2017-04-25T08:37:03.735Z,1017.78
2017-04-25T08:38:03.730Z,1017.76
2017-04-25T08:39:03.725Z,1017.78
2017-04-25T08:40:03.719Z,1017.73
2017-04-25T08:41:03.714Z,1017.76
2017-04-25T08:42:03.708Z,1017.75
2017-04-25T08:43:03.702Z,1017.81
2017-04-25T08:44:03.699Z,1017.88
2017-04-25T08:45:03.692Z,1018.01
2017-04-25T08:46:03.688Z,1018.05
2017-04-25T08:47:03.680Z,1018.01
2017-04-25T08:48:03.706Z,1018.03
2017-04-25T08:49:03.669Z,1018.08
2017-04-25T08:50:03.664Z,1018.07
2017-04-25T08:51:03.658Z,1018.17
2017-04-25T08:52:03.655Z,1018.29
2017-04-25T08:53:03.648Z,1018.29
2017-04-25T08:54:03.645Z,1018.36
2017-04-25T08:55:03.636Z,1018.42
2017-04-25T08:56:03.630Z,1018.48
2017-04-25T08:57:03.625Z,1018.56
2017-04-25T08:58:03.618Z,1018.58
2017-04-25T08:59:03.616Z,1018.64
2017-04-25T09:00:03.607Z,1018.66
2017-04-25T09:01:03.602Z,1018.74
2017-04-25T09:02:03.595Z,1018.81
2017-04-25T09:03:03.589Z,1018.86
2017-04-25T09:04:03.584Z,1018.97
2017-04-25T09:05:03.578Z,1019.02
2017-04-25T09:06:03.572Z,1019.05
2017-04-25T09:07:03.565Z,1019.01
2017-04-25T09:08:03.560Z,1019.19
2017-04-25T09:09:03.553Z,1019.23
2017-04-25T09:10:03.548Z,1019.28
2017-04-25T09:11:03.541Z,1019.34
2017-04-25T09:12:03.535Z,1019.33
2017-04-25T09:13:03.527Z,1019.4
2017-04-25T09:14:03.523Z,1019.47
2017-04-25T09:15:03.517Z,1019.59
2017-04-25T09:16:03.509Z,1019.64
2017-04-25T09:17:03.504Z,1019.65
2017-04-25T09:18:03.497Z,1019.59
2017-04-25T09:19:03.491Z,1019.5
2017-04-25T09:20:03.484Z,1019.38
2017-04-25T09:21:03.478Z,1019.39
2017-04-25T09:22:03.470Z,1019.35
2017-04-25T09:23:03.465Z,1019.32
2017-04-25T09:24:03.458Z,1019.31
2017-04-25T09:25:03.450Z,1019.3
2017-04-25T09:26:03.445Z,1019.28
2017-04-25T09:27:03.439Z,1019.23
2017-04-25T09:28:03.432Z,1019.22
2017-04-25T09:29:03.426Z,1019.22
2017-04-25T09:30:03.418Z,1019.18
2017-04-25T09:31:03.412Z,1019.18
2017-04-25T09:32:03.405Z,1019.27
2017-04-25T09:33:03.400Z,1019.25
2017-04-25T09:34:03.394Z,1019.2
2017-04-25T09:35:03.386Z,1019.24
2017-04-25T09:36:03.382Z,1019.22
2017-04-25T09:37:03.374Z,1019.32
2017-04-25T09:38:03.366Z,1019.35
2017-04-25T09:39:03.361Z,1019.38
2017-04-25T09:40:03.354Z,1019.42
2017-04-25T09:41:03.348Z,1019.41
2017-04-25T09:42:03.341Z,1019.4
2017-04-25T09:43:03.334Z,1019.25
2017-04-25T09:44:03.328Z,1019.23
2017-04-25T09:45:03.322Z,1019.14
2017-04-25T09:46:03.314Z,1019.1
2017-04-25T09:47:03.308Z,1019.02
2017-04-25T09:48:03.302Z,1018.99
2017-04-25T09:49:03.295Z,1018.96
2017-04-25T09:50:03.288Z,1019.06
2017-04-25T09:51:03.283Z,1019.11
2017-04-25T09:52:03.277Z,1019.07
2017-04-25T09:53:03.270Z,1019.06
2017-04-25T09:54:03.264Z,1018.96
2017-04-25T09:55:03.257Z,1018.89
2017-04-25T09:56:03.251Z,1018.79
2017-04-25T09:57:03.245Z,1018.72
2017-04-25T09:58:03.239Z,1018.67
2017-04-25T09:59:03.232Z,1018.72
2017-04-25T10:00:03.226Z,1018.68
2017-04-25T10:01:03.220Z,1018.7
2017-04-25T10:02:03.215Z,1018.68
2017-04-25T10:03:03.214Z,1018.73
2017-04-25T10:04:03.202Z,1018.69
2017-04-25T10:05:03.195Z,1018.66
2017-04-25T10:06:03.191Z,1018.6
2017-04-25T10:07:03.186Z,1018.61
2017-04-25T10:08:03.179Z,1018.74
2017-04-25T10:09:03.175Z,1018.78
2017-04-25T10:10:03.169Z,1018.73
2017-04-25T10:11:03.162Z,1018.56
2017-04-25T10:12:03.159Z,1018.32
2017-04-25T10:13:03.153Z,1018.29
2017-04-25T10:14:03.146Z,1018.06
2017-04-25T10:15:03.140Z,1017.8
2017-04-25T10:16:03.135Z,1017.71
2017-04-25T10:17:03.129Z,1017.52
2017-04-25T10:18:03.124Z,1017.4
2017-04-25T10:19:03.118Z,1017.43
2017-04-25T10:20:03.114Z,1017.4
2017-04-25T10:21:03.110Z,1017.27
2017-04-25T10:22:03.104Z,1017.27
2017-04-25T10:23:03.100Z,1017.14
2017-04-25T10:24:03.096Z,1017.05
2017-04-25T10:25:03.091Z,1017.08
2017-04-25T10:26:03.084Z,1016.98
2017-04-25T10:27:03.080Z,1016.96
2017-04-25T10:28:03.078Z,1016.98
2017-04-25T10:29:03.073Z,1016.8
2017-04-25T10:30:03.069Z,1016.75
2017-04-25T10:31:03.065Z,1016.73
2017-04-25T10:32:03.062Z,1016.93
2017-04-25T10:33:03.056Z,1017.11
2017-04-25T10:34:03.054Z,1017.17
2017-04-25T10:35:03.050Z,1017.34
2017-04-25T10:36:03.047Z,1017.32
2017-04-25T10:37:03.042Z,1017.22
2017-04-25T10:38:03.039Z,1017.19
2017-04-25T10:39:03.035Z,1017.11
2017-04-25T10:40:03.031Z,1017.1
2017-04-25T10:41:03.028Z,1017.12
2017-04-25T10:42:03.025Z,1017.09
2017-04-25T10:43:03.021Z,1017.09
2017-04-25T10:44:03.017Z,1017.16
2017-04-25T10:45:03.263Z,1017.1
2017-04-25T10:46:03.010Z,1017.06
2017-04-25T10:47:03.008Z,1017.06
2017-04-25T10:48:03.003Z,1017.17
2017-04-25T10:49:03.001Z,1017.2
2017-04-25T10:50:02.997Z,1017.2
2017-04-25T10:51:02.993Z,1017.1
2017-04-25T10:52:02.991Z,1016.9
2017-04-25T10:53:02.987Z,1016.69
2017-04-25T10:54:02.983Z,1016.63
2017-04-25T10:55:02.979Z,1016.51
2017-04-25T10:56:02.976Z,1016.38
2017-04-25T10:57:02.974Z,1016.28
2017-04-25T10:58:02.971Z,1016.31
2017-04-25T10:59:02.972Z,1016.27
2017-04-25T11:00:02.964Z,1016.2
2017-04-25T11:01:02.962Z,1016.15
2017-04-25T11:02:02.959Z,1016
2017-04-25T11:03:02.956Z,1016.08
2017-04-25T11:04:02.953Z,1016.04
2017-04-25T11:05:02.950Z,1015.88
2017-04-25T11:06:02.949Z,1015.75
2017-04-25T11:07:02.945Z,1015.69
2017-04-25T11:08:02.943Z,1015.63
2017-04-25T11:09:02.941Z,1015.72
2017-04-25T11:10:02.938Z,1015.74
2017-04-25T11:11:02.938Z,1015.79
2017-04-25T11:12:02.934Z,1015.79
2017-04-25T11:13:02.931Z,1015.87
2017-04-25T11:14:02.929Z,1016.03
2017-04-25T11:15:02.928Z,1016.22
2017-04-25T11:16:02.925Z,1016.51
2017-04-25T11:17:02.923Z,1016.63
2017-04-25T11:18:02.922Z,1016.63
2017-04-25T11:19:02.920Z,1016.56
2017-04-25T11:20:02.916Z,1016.59
2017-04-25T11:21:02.915Z,1016.55
2017-04-25T11:22:02.916Z,1016.42
2017-04-25T11:23:02.911Z,1016.48
2017-04-25T11:24:02.907Z,1016.52
2017-04-25T11:25:02.905Z,1016.49
2017-04-25T11:26:02.905Z,1016.47
2017-04-25T11:27:02.902Z,1016.3
2017-04-25T11:28:02.899Z,1016.22
2017-04-25T11:29:02.897Z,1016.03
2017-04-25T11:30:02.895Z,1015.9
2017-04-25T11:31:02.893Z,1015.76
2017-04-25T11:32:02.890Z,1015.71
2017-04-25T11:33:02.888Z,1015.61
2017-04-25T11:34:02.887Z,1015.54
2017-04-25T11:35:02.884Z,1015.61
2017-04-25T11:36:02.882Z,1015.65
2017-04-25T11:37:02.881Z,1015.72
2017-04-25T11:38:02.879Z,1015.7
2017-04-25T11:39:02.877Z,1015.63
2017-04-25T11:40:02.876Z,1015.49
2017-04-25T11:41:02.876Z,1015.49
2017-04-25T11:42:02.872Z,1015.55
2017-04-25T11:43:02.871Z,1015.65
2017-04-25T11:44:02.872Z,1015.63
2017-04-25T11:45:02.869Z,1015.75
2017-04-25T11:46:02.867Z,1015.88
2017-04-25T11:47:02.866Z,1016.07
2017-04-25T11:48:02.865Z,1016.24
2017-04-25T11:49:02.864Z,1016.35
2017-04-25T11:50:02.861Z,1016.49
2017-04-25T11:51:02.861Z,1016.82
2017-04-25T11:52:02.859Z,1016.83
2017-04-25T11:53:02.858Z,1017.1
2017-04-25T11:54:02.856Z,1017.23
2017-04-25T11:55:02.854Z,1017.44
2017-04-25T11:56:02.854Z,1017.58
2017-04-25T11:57:02.850Z,1017.72
2017-04-25T11:58:02.847Z,1017.85
2017-04-25T11:59:02.845Z,1017.87
2017-04-25T12:00:02.843Z,1017.94
2017-04-25T12:01:02.840Z,1017.98
2017-04-25T12:02:02.837Z,1017.94
2017-04-25T12:03:02.835Z,1017.99
2017-04-25T12:04:02.831Z,1017.95
2017-04-25T12:05:02.828Z,1018
2017-04-25T12:06:02.826Z,1018.03
2017-04-25T12:07:02.823Z,1018.01
2017-04-25T12:08:02.819Z,1018.05